createdAt,value
2023-01-19T00:02:26.503Z,101014.19
2023-01-19T00:07:30.407Z,101007.13
2023-01-19T00:12:32.932Z,101042.47
2023-01-19T00:17:34.884Z,101013.63
2023-01-19T00:22:36.964Z,101022.09
2023-01-19T00:27:39.077Z,101012.56
2023-01-19T00:32:41.168Z,100994.94
2023-01-19T00:37:46.414Z,100985.69
2023-01-19T00:42:48.830Z,100987.69
2023-01-19T00:47:57.426Z,100971.00
2023-01-19T00:53:01.578Z,100983.34
2023-01-19T00:58:04.163Z,100975.34
2023-01-19T01:03:06.406Z,100973.75
2023-01-19T01:08:08.526Z,100977.31
2023-01-19T01:13:20.334Z,100966.75
2023-01-19T01:18:26.512Z,100955.38
2023-01-19T01:23:28.620Z,100960.44
2023-01-19T01:28:31.857Z,100953.69
2023-01-19T01:33:39.956Z,100982.41
2023-01-19T01:38:43.823Z,100986.00
2023-01-19T01:43:46.015Z,100975.25
2023-01-19T01:49:15.971Z,101005.34
2023-01-19T01:54:23.441Z,101015.81
2023-01-19T01:59:29.888Z,101031.75
2023-01-19T02:04:32.356Z,101047.59
2023-01-19T02:09:55.972Z,101044.09
2023-01-19T02:14:58.098Z,101036.16
2023-01-19T02:20:00.229Z,101022.97
2023-01-19T02:25:06.321Z,101029.94
2023-01-19T02:30:10.267Z,101051.06
2023-01-19T02:35:13.306Z,101063.44
2023-01-19T02:40:20.424Z,101071.34
2023-01-19T02:45:23.726Z,101088.97
2023-01-19T02:50:34.552Z,101088.59
2023-01-19T02:55:38.172Z,101095.69
2023-01-19T03:00:58.975Z,101087.19
2023-01-19T03:06:12.281Z,101098.91
2023-01-19T03:11:15.162Z,101077.00
2023-01-19T03:16:17.376Z,101098.22
2023-01-19T03:21:22.254Z,101087.56
2023-01-19T03:26:30.064Z,101108.78
2023-01-19T03:31:34.442Z,101122.81
2023-01-19T03:36:43.917Z,101115.00
2023-01-19T03:41:49.510Z,101120.28
2023-01-19T03:46:52.375Z,101134.44
2023-01-19T03:51:59.192Z,101137.16
2023-01-19T03:57:01.330Z,101137.34
2023-01-19T04:02:03.633Z,101144.31
2023-01-19T04:07:05.907Z,101146.94
2023-01-19T04:12:08.333Z,101146.09
2023-01-19T04:17:10.759Z,101147.16
2023-01-19T04:22:12.944Z,101159.41
2023-01-19T04:27:16.627Z,101155.81
2023-01-19T04:32:19.130Z,101155.72
2023-01-19T04:37:21.316Z,101155.81
2023-01-19T04:42:24.132Z,101154.97
2023-01-19T04:47:26.484Z,101162.88
2023-01-19T04:52:36.094Z,101139.41
2023-01-19T04:57:38.310Z,101152.31
2023-01-19T05:02:42.894Z,101143.59
2023-01-19T05:07:45.642Z,101143.75
2023-01-19T05:12:47.896Z,101146.22
2023-01-19T05:17:50.130Z,101183.19
2023-01-19T05:22:53.563Z,101204.38
2023-01-19T05:27:55.639Z,101219.28
2023-01-19T05:32:57.791Z,101217.50
2023-01-19T05:37:59.985Z,101238.78
2023-01-19T05:43:05.516Z,101269.59
2023-01-19T05:48:09.524Z,101289.03
2023-01-19T05:53:12.414Z,101293.44
2023-01-19T05:58:14.566Z,101334.09
2023-01-19T06:03:16.812Z,101328.81
2023-01-19T06:08:19.431Z,101307.09
2023-01-19T06:13:21.875Z,101278.16
2023-01-19T06:18:24.179Z,101282.50
2023-01-19T06:23:27.588Z,101277.97
2023-01-19T06:28:30.065Z,101278.72
2023-01-19T06:33:32.326Z,101278.72
2023-01-19T06:38:34.436Z,101284.88
2023-01-19T06:43:36.811Z,101279.59
2023-01-19T06:48:38.946Z,101282.16
2023-01-19T06:53:41.058Z,101292.59
2023-01-19T06:58:43.559Z,101293.56
2023-01-19T07:03:46.968Z,101302.22
2023-01-19T07:08:49.197Z,101304.84
2023-01-19T07:13:54.906Z,101306.75
2023-01-19T07:18:57.019Z,101300.50
2023-01-19T07:23:59.163Z,101313.81
2023-01-19T07:29:01.354Z,101310.06
2023-01-19T07:34:03.462Z,101310.84
2023-01-19T07:39:05.543Z,101315.06
2023-01-19T07:44:08.922Z,101331.69
2023-01-19T07:49:11.789Z,101331.69
2023-01-19T07:54:13.919Z,101352.72
2023-01-19T07:59:16.084Z,101347.53
2023-01-19T08:04:19.321Z,101342.41
2023-01-19T08:09:21.755Z,101351.38
2023-01-19T08:14:23.877Z,101369.00
2023-01-19T08:19:26.071Z,101379.63
2023-01-19T08:24:29.337Z,101388.47
2023-01-19T08:29:32.168Z,101395.53
2023-01-19T08:34:34.257Z,101400.81
2023-01-19T08:39:36.409Z,101415.00
2023-01-19T08:44:46.644Z,101423.06
2023-01-19T08:49:55.299Z,101431.06
2023-01-19T08:54:57.440Z,101425.88
2023-01-19T08:59:59.575Z,101418.91
2023-01-19T09:05:01.715Z,101428.53
2023-01-19T09:10:05.365Z,101436.25
2023-01-19T09:15:08.331Z,101431.16
2023-01-19T09:20:11.072Z,101448.00
2023-01-19T09:25:13.356Z,101447.16
2023-01-19T09:30:17.431Z,101455.94
2023-01-19T09:35:19.644Z,101471.16
2023-01-19T09:40:22.021Z,101472.88
2023-01-19T09:45:46.247Z,101495.00
2023-01-19T09:50:49.577Z,101478.22
2023-01-19T09:55:51.717Z,101506.41
2023-01-19T10:01:04.891Z,101496.78
2023-01-19T10:06:12.077Z,101510.91
2023-01-19T10:11:42.015Z,101487.16
2023-01-19T10:17:15.032Z,101500.28
2023-01-19T10:22:24.697Z,101517.03
2023-01-19T10:27:30.585Z,101495.91
2023-01-19T10:32:37.148Z,101514.31
2023-01-19T10:37:44.908Z,101520.59
2023-01-19T10:42:47.182Z,101514.31
2023-01-19T10:47:50.284Z,101514.25
2023-01-19T10:52:57.718Z,101509.91
2023-01-19T10:58:00.099Z,101508.03
2023-01-19T11:03:03.505Z,101508.88
2023-01-19T11:08:31.289Z,101507.06
2023-01-19T11:13:33.482Z,101507.94
2023-01-19T11:18:38.393Z,101508.78
2023-01-19T11:23:46.379Z,101507.84
2023-01-19T11:28:51.554Z,101496.38
2023-01-19T11:33:56.776Z,101498.22
2023-01-19T11:39:24.532Z,101498.22
2023-01-19T11:44:32.845Z,101477.97
2023-01-19T11:49:49.817Z,101492.94
2023-01-19T11:55:01.771Z,101499.09
2023-01-19T12:00:17.719Z,101481.53
2023-01-19T12:05:20.907Z,101474.56
2023-01-19T12:10:29.554Z,101475.41
2023-01-19T12:15:43.290Z,101464.00
2023-01-19T12:20:50.347Z,101473.72
2023-01-19T12:26:25.054Z,101450.97
2023-01-19T12:31:27.628Z,101453.34
2023-01-19T12:36:29.912Z,101457.78
2023-01-19T12:41:35.933Z,101449.00
2023-01-19T12:46:47.410Z,101452.63
2023-01-19T12:51:52.636Z,101442.88
2023-01-19T12:57:01.656Z,101427.03
2023-01-19T13:02:18.832Z,101429.69
2023-01-19T13:07:21.048Z,101424.31
2023-01-19T13:12:25.991Z,101425.09
2023-01-19T13:17:50.096Z,101418.13
2023-01-19T13:23:13.197Z,101422.63
2023-01-19T13:28:18.510Z,101428.00
2023-01-19T13:33:24.786Z,101419.81
2023-01-19T13:38:28.276Z,101416.25
2023-01-19T13:43:38.041Z,101429.34
2023-01-19T13:48:51.429Z,101422.28
2023-01-19T13:53:55.328Z,101408.22
2023-01-19T13:59:12.002Z,101421.44
2023-01-19T14:04:34.075Z,101399.63
2023-01-19T14:09:36.278Z,101405.69
2023-01-19T14:14:39.002Z,101403.91
2023-01-19T14:19:51.379Z,101392.50
2023-01-19T14:24:53.534Z,101405.59
2023-01-19T14:30:21.737Z,101385.25
2023-01-19T14:35:25.033Z,101389.69
2023-01-19T14:40:27.351Z,101399.31
2023-01-19T14:45:35.463Z,101395.81
2023-01-19T14:50:41.565Z,101387.88
2023-01-19T14:56:07.082Z,101380.81
2023-01-19T15:01:09.530Z,101379.13
2023-01-19T15:06:17.808Z,101383.47
2023-01-19T15:11:23.564Z,101374.69
2023-01-19T15:16:28.043Z,101394.69
2023-01-19T15:21:30.306Z,101381.50
2023-01-19T15:26:32.507Z,101366.50
2023-01-19T15:31:36.088Z,101376.22
2023-01-19T15:36:38.254Z,101365.84
2023-01-19T15:41:40.980Z,101349.72
2023-01-19T15:46:43.150Z,101350.66
2023-01-19T15:51:45.842Z,101349.66
2023-01-19T15:56:48.229Z,101343.53
2023-01-19T16:01:51.097Z,101339.09
2023-01-19T16:06:53.414Z,101353.22
2023-01-19T16:11:57.320Z,101340.09
2023-01-19T16:17:02.172Z,101342.75
2023-01-19T16:22:05.788Z,101325.03
2023-01-19T16:27:09.091Z,101321.75
2023-01-19T16:32:11.337Z,101333.16
2023-01-19T16:37:13.615Z,101312.84
2023-01-19T16:42:16.770Z,101313.72
2023-01-19T16:47:18.938Z,101304.94
2023-01-19T16:52:21.102Z,101302.50
2023-01-19T16:57:23.393Z,101297.03
2023-01-19T17:02:25.522Z,101297.22
2023-01-19T17:07:28.515Z,101299.00
2023-01-19T17:12:32.337Z,101276.88
2023-01-19T17:17:36.496Z,101269.81
2023-01-19T17:22:38.729Z,101266.38
2023-01-19T17:27:40.969Z,101260.91
2023-01-19T17:32:43.248Z,101255.56
2023-01-19T17:37:45.454Z,101248.56
2023-01-19T17:42:48.151Z,101247.13
2023-01-19T17:47:50.776Z,101248.25
2023-01-19T17:52:53.048Z,101243.56
2023-01-19T17:57:55.236Z,101228.66
2023-01-19T18:02:57.470Z,101225.09
2023-01-19T18:08:00.648Z,101216.31
2023-01-19T18:13:02.823Z,101223.22
2023-01-19T18:18:05.050Z,101213.41
2023-01-19T18:23:07.646Z,101193.06
2023-01-19T18:28:10.093Z,101169.28
2023-01-19T18:33:12.227Z,101164.88
2023-01-19T18:38:14.887Z,101166.66
2023-01-19T18:43:16.984Z,101155.06
2023-01-19T18:48:19.111Z,101140.25
2023-01-19T18:53:22.091Z,101134.22
2023-01-19T18:58:25.269Z,101126.19
2023-01-19T19:03:27.857Z,101130.53
2023-01-19T19:08:30.255Z,101110.28
2023-01-19T19:13:32.597Z,101091.72
2023-01-19T19:18:36.355Z,101092.75
2023-01-19T19:23:38.900Z,101084.81
2023-01-19T19:28:41.666Z,101090.78
2023-01-19T19:33:44.405Z,101075.75
2023-01-19T19:38:47.864Z,101061.16
2023-01-19T19:43:50.696Z,101055.50
2023-01-19T19:48:53.901Z,101054.47
2023-01-19T19:54:00.589Z,101044.94
2023-01-19T19:59:02.720Z,101046.00
2023-01-19T20:04:10.916Z,101021.47
2023-01-19T20:09:14.466Z,101006.47
2023-01-19T20:14:16.970Z,101010.81
2023-01-19T20:19:19.400Z,101006.38
2023-01-19T20:24:21.605Z,100989.63
2023-01-19T20:29:23.930Z,100976.41
2023-01-19T20:34:32.847Z,100982.34
2023-01-19T20:39:37.068Z,100965.72
2023-01-19T20:44:39.897Z,100964.16
2023-01-19T20:49:42.306Z,100954.31
2023-01-19T20:54:44.508Z,100935.97
2023-01-19T20:59:46.663Z,100923.50
2023-01-19T21:04:49.035Z,100907.47
2023-01-19T21:09:51.273Z,100891.72
2023-01-19T21:14:53.575Z,100873.25
2023-01-19T21:19:55.692Z,100861.84
2023-01-19T21:24:57.992Z,100845.38
2023-01-19T21:30:02.457Z,100846.22
2023-01-19T21:35:04.970Z,100822.63
2023-01-19T21:40:08.056Z,100812.84
2023-01-19T21:45:10.421Z,100814.53
2023-01-19T21:50:12.676Z,100789.84
2023-01-19T21:55:15.306Z,100762.78
2023-01-19T22:00:18.280Z,100749.19
2023-01-19T22:05:20.433Z,100740.41
2023-01-19T22:10:22.576Z,100735.34
2023-01-19T22:15:24.755Z,100727.13
2023-01-19T22:20:27.010Z,100714.94
2023-01-19T22:25:29.311Z,100706.31
2023-01-19T22:30:31.611Z,100701.03
2023-01-19T22:35:33.732Z,100683.59
2023-01-19T22:40:35.875Z,100662.47
2023-01-19T22:45:41.682Z,100653.81
2023-01-19T22:50:43.849Z,100631.03
2023-01-19T22:55:45.985Z,100621.28
2023-01-19T23:00:48.310Z,100616.84
2023-01-19T23:06:11.254Z,100604.50
2023-01-19T23:11:16.269Z,100572.97
2023-01-19T23:16:19.014Z,100561.34
2023-01-19T23:21:23.171Z,100553.31
2023-01-19T23:26:26.333Z,100546.25
2023-01-19T23:31:33.962Z,100539.16
2023-01-19T23:36:38.063Z,100519.00
2023-01-19T23:41:40.319Z,100475.91
2023-01-19T23:46:44.135Z,100461.13
2023-01-19T23:51:46.380Z,100478.91
2023-01-19T23:56:48.651Z,100493.78
